Terminal Aerodrome Forecast
Issued by NWS Tiyan, Guam

Home | Current Version | Previous Version | Text Only | Print | Product List | Glossary On
Versions: 1 2 3 4 5 6 7 8 9 10 11 12 13 14 15 16 17 18 19 20 21 22 23 24 25 26 27 28 29 30 31 32 33 34 35 36 37 38 39 40 41 42
000
FTPQ31 PGUM 281700
TAFPQ
TAF
PGUM 281720Z 2818/2924 30011KT P6SM VCSH SCT011 SCT040 BKN100
     FM282300 30013KT 6SM -RA SCT011 SCT030 BKN060=

USA.gov is the U.S. government's official web portal to all federal, state and local government web resources and services.